sensor_id;sensor_type;location;lat;lon;timestamp;temperature;humidity
20957;DHT22;10637;47.970;7.830;2023-03-30T00:04:38;18.90;85.40
20957;DHT22;10637;47.970;7.830;2023-03-30T00:09:43;18.90;85.40
20957;DHT22;10637;47.970;7.830;2023-03-30T00:14:47;19.00;84.50
20957;DHT22;10637;47.970;7.830;2023-03-30T00:19:49;19.10;84.60
20957;DHT22;10637;47.970;7.830;2023-03-30T00:24:50;19.00;85.00
20957;DHT22;10637;47.970;7.830;2023-03-30T00:29:52;19.30;83.90
20957;DHT22;10637;47.970;7.830;2023-03-30T00:34:54;19.60;82.70
20957;DHT22;10637;47.970;7.830;2023-03-30T00:39:56;19.60;83.20
20957;DHT22;10637;47.970;7.830;2023-03-30T00:50:26;19.80;82.60
20957;DHT22;10637;47.970;7.830;2023-03-30T00:55:31;19.80;83.40
20957;DHT22;10637;47.970;7.830;2023-03-30T01:00:34;19.70;85.60
20957;DHT22;10637;47.970;7.830;2023-03-30T01:05:39;19.60;87.40
20957;DHT22;10637;47.970;7.830;2023-03-30T01:10:45;19.20;90.50
20957;DHT22;10637;47.970;7.830;2023-03-30T01:26:53;18.60;93.30
20957;DHT22;10637;47.970;7.830;2023-03-30T01:37:36;17.80;99.10
20957;DHT22;10637;47.970;7.830;2023-03-30T01:42:55;17.30;99.90
20957;DHT22;10637;47.970;7.830;2023-03-30T01:48:27;16.90;99.90
20957;DHT22;10637;47.970;7.830;2023-03-30T01:59:27;16.40;99.90
20957;DHT22;10637;47.970;7.830;2023-03-30T02:04:35;16.20;99.90
20957;DHT22;10637;47.970;7.830;2023-03-30T02:09:40;15.90;99.90
20957;DHT22;10637;47.970;7.830;2023-03-30T02:14:42;15.90;99.90
20957;DHT22;10637;47.970;7.830;2023-03-30T02:19:45;15.90;99.90
20957;DHT22;10637;47.970;7.830;2023-03-30T02:24:51;15.60;99.90
20957;DHT22;10637;47.970;7.830;2023-03-30T02:29:54;15.50;99.90
20957;DHT22;10637;47.970;7.830;2023-03-30T02:46:22;15.30;99.90
20957;DHT22;10637;47.970;7.830;2023-03-30T02:52:21;15.30;99.90
20957;DHT22;10637;47.970;7.830;2023-03-30T02:56:59;15.20;99.90
20957;DHT22;10637;47.970;7.830;2023-03-30T03:02:17;15.00;99.90
20957;DHT22;10637;47.970;7.830;2023-03-30T03:07:21;14.90;99.90
20957;DHT22;10637;47.970;7.830;2023-03-30T03:12:22;15.00;99.90
20957;DHT22;10637;47.970;7.830;2023-03-30T03:17:24;15.00;99.90
20957;DHT22;10637;47.970;7.830;2023-03-30T03:22:30;15.10;99.90
20957;DHT22;10637;47.970;7.830;2023-03-30T03:27:32;15.00;99.90
20957;DHT22;10637;47.970;7.830;2023-03-30T03:32:34;15.30;99.90
20957;DHT22;10637;47.970;7.830;2023-03-30T03:37:35;15.30;99.90
20957;DHT22;10637;47.970;7.830;2023-03-30T03:42:37;15.70;99.90
20957;DHT22;10637;47.970;7.830;2023-03-30T03:47:39;16.60;99.90
20957;DHT22;10637;47.970;7.830;2023-03-30T03:52:41;17.20;99.90
20957;DHT22;10637;47.970;7.830;2023-03-30T03:57:42;17.70;98.70
20957;DHT22;10637;47.970;7.830;2023-03-30T04:02:45;18.00;97.80
20957;DHT22;10637;47.970;7.830;2023-03-30T04:07:47;18.10;96.80
20957;DHT22;10637;47.970;7.830;2023-03-30T04:12:49;18.10;96.70
20957;DHT22;10637;47.970;7.830;2023-03-30T04:17:51;18.30;95.60
20957;DHT22;10637;47.970;7.830;2023-03-30T04:22:58;18.40;95.60
20957;DHT22;10637;47.970;7.830;2023-03-30T04:28:02;18.40;94.80
20957;DHT22;10637;47.970;7.830;2023-03-30T04:33:05;18.60;94.20
20957;DHT22;10637;47.970;7.830;2023-03-30T04:38:10;18.40;94.90
20957;DHT22;10637;47.970;7.830;2023-03-30T04:43:12;18.30;95.30
20957;DHT22;10637;47.970;7.830;2023-03-30T04:48:15;18.10;95.60
20957;DHT22;10637;47.970;7.830;2023-03-30T04:53:17;18.00;95.90
20957;DHT22;10637;47.970;7.830;2023-03-30T04:58:19;18.00;96.20
20957;DHT22;10637;47.970;7.830;2023-03-30T05:03:21;17.90;95.60
20957;DHT22;10637;47.970;7.830;2023-03-30T05:08:24;18.00;96.10
20957;DHT22;10637;47.970;7.830;2023-03-30T05:13:25;17.80;96.10
20957;DHT22;10637;47.970;7.830;2023-03-30T05:18:27;18.00;94.30
20957;DHT22;10637;47.970;7.830;2023-03-30T05:23:29;18.30;93.90
20957;DHT22;10637;47.970;7.830;2023-03-30T05:28:31;18.40;93.40
20957;DHT22;10637;47.970;7.830;2023-03-30T05:33:33;18.90;91.60
20957;DHT22;10637;47.970;7.830;2023-03-30T05:38:34;18.80;91.70
20957;DHT22;10637;47.970;7.830;2023-03-30T05:43:36;18.70;94.30
20957;DHT22;10637;47.970;7.830;2023-03-30T05:48:38;18.50;93.10
20957;DHT22;10637;47.970;7.830;2023-03-30T05:53:40;18.40;92.70
20957;DHT22;10637;47.970;7.830;2023-03-30T05:58:41;18.30;93.30
20957;DHT22;10637;47.970;7.830;2023-03-30T06:03:43;18.30;93.60
20957;DHT22;10637;47.970;7.830;2023-03-30T06:08:46;18.10;93.90
20957;DHT22;10637;47.970;7.830;2023-03-30T06:13:47;18.30;92.60
20957;DHT22;10637;47.970;7.830;2023-03-30T06:18:49;18.20;92.50
20957;DHT22;10637;47.970;7.830;2023-03-30T06:23:51;18.30;91.80
20957;DHT22;10637;47.970;7.830;2023-03-30T06:28:53;18.30;91.70
20957;DHT22;10637;47.970;7.830;2023-03-30T06:33:54;18.20;91.80
20957;DHT22;10637;47.970;7.830;2023-03-30T06:38:56;18.00;92.30
20957;DHT22;10637;47.970;7.830;2023-03-30T06:43:58;17.90;93.30
20957;DHT22;10637;47.970;7.830;2023-03-30T06:48:59;17.70;93.60
20957;DHT22;10637;47.970;7.830;2023-03-30T06:54:01;17.60;94.30
20957;DHT22;10637;47.970;7.830;2023-03-30T06:59:03;17.50;94.40
20957;DHT22;10637;47.970;7.830;2023-03-30T07:04:06;17.40;94.60
20957;DHT22;10637;47.970;7.830;2023-03-30T07:09:08;17.30;94.60
20957;DHT22;10637;47.970;7.830;2023-03-30T07:14:10;17.20;94.40
20957;DHT22;10637;47.970;7.830;2023-03-30T07:19:14;17.10;94.80
20957;DHT22;10637;47.970;7.830;2023-03-30T07:24:16;17.10;95.10
20957;DHT22;10637;47.970;7.830;2023-03-30T07:29:18;16.80;97.30
20957;DHT22;10637;47.970;7.830;2023-03-30T07:34:20;16.60;97.50
20957;DHT22;10637;47.970;7.830;2023-03-30T07:39:21;16.60;97.60
20957;DHT22;10637;47.970;7.830;2023-03-30T07:44:23;16.50;98.20
20957;DHT22;10637;47.970;7.830;2023-03-30T07:49:29;16.40;98.60
20957;DHT22;10637;47.970;7.830;2023-03-30T07:54:31;16.40;98.50
20957;DHT22;10637;47.970;7.830;2023-03-30T07:59:33;16.10;99.30
20957;DHT22;10637;47.970;7.830;2023-03-30T08:04:35;15.90;99.90
20957;DHT22;10637;47.970;7.830;2023-03-30T08:09:37;15.80;99.90
20957;DHT22;10637;47.970;7.830;2023-03-30T08:14:39;15.60;99.90
20957;DHT22;10637;47.970;7.830;2023-03-30T08:19:41;14.90;99.90
20957;DHT22;10637;47.970;7.830;2023-03-30T08:24:42;14.70;99.90
20957;DHT22;10637;47.970;7.830;2023-03-30T08:29:44;14.50;99.90
20957;DHT22;10637;47.970;7.830;2023-03-30T08:34:46;14.20;99.90
20957;DHT22;10637;47.970;7.830;2023-03-30T08:39:47;14.00;99.90
20957;DHT22;10637;47.970;7.830;2023-03-30T08:44:54;13.80;99.90
20957;DHT22;10637;47.970;7.830;2023-03-30T08:50:10;13.50;99.90
20957;DHT22;10637;47.970;7.830;2023-03-30T08:55:37;13.40;99.90
20957;DHT22;10637;47.970;7.830;2023-03-30T09:00:59;13.20;99.90
20957;DHT22;10637;47.970;7.830;2023-03-30T09:06:13;13.10;99.90
20957;DHT22;10637;47.970;7.830;2023-03-30T09:11:31;13.00;99.90
20957;DHT22;10637;47.970;7.830;2023-03-30T09:16:37;13.00;99.90
20957;DHT22;10637;47.970;7.830;2023-03-30T09:21:42;13.00;99.90
20957;DHT22;10637;47.970;7.830;2023-03-30T09:27:05;13.10;99.90
20957;DHT22;10637;47.970;7.830;2023-03-30T09:32:30;13.10;99.90
20957;DHT22;10637;47.970;7.830;2023-03-30T09:37:33;13.20;99.90
20957;DHT22;10637;47.970;7.830;2023-03-30T09:42:48;13.30;99.90
20957;DHT22;10637;47.970;7.830;2023-03-30T09:47:51;13.30;99.90
20957;DHT22;10637;47.970;7.830;2023-03-30T09:53:01;13.40;99.90
20957;DHT22;10637;47.970;7.830;2023-03-30T09:58:17;13.50;99.90
20957;DHT22;10637;47.970;7.830;2023-03-30T10:03:21;13.50;99.90
20957;DHT22;10637;47.970;7.830;2023-03-30T10:08:23;13.50;99.90
20957;DHT22;10637;47.970;7.830;2023-03-30T10:13:37;13.60;99.90
20957;DHT22;10637;47.970;7.830;2023-03-30T10:18:43;13.70;99.90
20957;DHT22;10637;47.970;7.830;2023-03-30T10:24:02;13.70;99.90
20957;DHT22;10637;47.970;7.830;2023-03-30T10:29:06;13.70;99.90
20957;DHT22;10637;47.970;7.830;2023-03-30T10:34:31;13.70;99.90
20957;DHT22;10637;47.970;7.830;2023-03-30T10:39:38;13.70;99.90
20957;DHT22;10637;47.970;7.830;2023-03-30T10:45:05;13.80;99.90
20957;DHT22;10637;47.970;7.830;2023-03-30T11:01:03;13.90;99.90
20957;DHT22;10637;47.970;7.830;2023-03-30T11:06:13;14.00;99.90
20957;DHT22;10637;47.970;7.830;2023-03-30T11:11:21;14.00;99.90
20957;DHT22;10637;47.970;7.830;2023-03-30T11:16:38;13.90;99.90
20957;DHT22;10637;47.970;7.830;2023-03-30T11:27:32;13.80;99.90
20957;DHT22;10637;47.970;7.830;2023-03-30T11:32:54;13.70;99.90
20957;DHT22;10637;47.970;7.830;2023-03-30T11:43:18;13.50;99.90
20957;DHT22;10637;47.970;7.830;2023-03-30T11:59:04;13.80;99.90
20957;DHT22;10637;47.970;7.830;2023-03-30T12:04:12;14.00;99.90
20957;DHT22;10637;47.970;7.830;2023-03-30T12:19:50;15.50;99.90
20957;DHT22;10637;47.970;7.830;2023-03-30T12:30:23;15.40;99.90
20957;DHT22;10637;47.970;7.830;2023-03-30T12:41:10;15.00;99.90
20957;DHT22;10637;47.970;7.830;2023-03-30T12:46:28;14.80;99.90
20957;DHT22;10637;47.970;7.830;2023-03-30T12:51:39;14.80;99.90
20957;DHT22;10637;47.970;7.830;2023-03-30T12:57:34;14.70;99.90
20957;DHT22;10637;47.970;7.830;2023-03-30T13:07:42;15.40;99.90
20957;DHT22;10637;47.970;7.830;2023-03-30T13:12:47;15.60;99.90
20957;DHT22;10637;47.970;7.830;2023-03-30T13:17:59;15.70;99.90
20957;DHT22;10637;47.970;7.830;2023-03-30T13:23:24;15.90;99.90
20957;DHT22;10637;47.970;7.830;2023-03-30T13:33:36;15.90;99.90
20957;DHT22;10637;47.970;7.830;2023-03-30T13:39:16;16.00;99.90
20957;DHT22;10637;47.970;7.830;2023-03-30T13:44:35;16.10;99.90
20957;DHT22;10637;47.970;7.830;2023-03-30T13:49:46;15.90;99.90
20957;DHT22;10637;47.970;7.830;2023-03-30T13:54:51;15.90;99.90
20957;DHT22;10637;47.970;7.830;2023-03-30T13:59:59;15.90;99.90
20957;DHT22;10637;47.970;7.830;2023-03-30T14:05:23;15.80;99.90
20957;DHT22;10637;47.970;7.830;2023-03-30T14:10:26;15.90;99.90
20957;DHT22;10637;47.970;7.830;2023-03-30T14:15:34;16.10;99.90
20957;DHT22;10637;47.970;7.830;2023-03-30T14:20:50;16.30;99.90
20957;DHT22;10637;47.970;7.830;2023-03-30T14:25:58;16.30;99.90
20957;DHT22;10637;47.970;7.830;2023-03-30T14:31:03;16.30;99.90
20957;DHT22;10637;47.970;7.830;2023-03-30T14:36:09;16.30;99.90
20957;DHT22;10637;47.970;7.830;2023-03-30T14:41:20;16.10;99.90
20957;DHT22;10637;47.970;7.830;2023-03-30T14:46:30;15.70;99.90
20957;DHT22;10637;47.970;7.830;2023-03-30T14:51:40;15.30;99.90
20957;DHT22;10637;47.970;7.830;2023-03-30T14:56:44;14.80;99.90
20957;DHT22;10637;47.970;7.830;2023-03-30T15:01:47;14.50;99.90
20957;DHT22;10637;47.970;7.830;2023-03-30T15:06:50;14.60;99.90
20957;DHT22;10637;47.970;7.830;2023-03-30T15:11:57;14.50;99.90
20957;DHT22;10637;47.970;7.830;2023-03-30T15:17:08;14.40;99.90
20957;DHT22;10637;47.970;7.830;2023-03-30T15:22:39;14.30;99.90
20957;DHT22;10637;47.970;7.830;2023-03-30T15:27:45;14.60;99.90
20957;DHT22;10637;47.970;7.830;2023-03-30T15:32:53;14.50;99.90
20957;DHT22;10637;47.970;7.830;2023-03-30T15:38:11;14.50;99.90
20957;DHT22;10637;47.970;7.830;2023-03-30T15:43:15;14.50;99.90
20957;DHT22;10637;47.970;7.830;2023-03-30T15:48:40;14.50;99.90
20957;DHT22;10637;47.970;7.830;2023-03-30T15:54:01;14.60;99.90
20957;DHT22;10637;47.970;7.830;2023-03-30T15:59:04;14.70;99.90
20957;DHT22;10637;47.970;7.830;2023-03-30T16:04:12;14.70;99.90
20957;DHT22;10637;47.970;7.830;2023-03-30T16:09:15;15.00;99.90
20957;DHT22;10637;47.970;7.830;2023-03-30T16:14:18;15.50;99.90
20957;DHT22;10637;47.970;7.830;2023-03-30T16:19:21;15.70;99.90
20957;DHT22;10637;47.970;7.830;2023-03-30T16:24:25;15.90;99.90
20957;DHT22;10637;47.970;7.830;2023-03-30T16:29:27;15.80;99.90
20957;DHT22;10637;47.970;7.830;2023-03-30T16:34:28;15.90;99.90
20957;DHT22;10637;47.970;7.830;2023-03-30T16:39:30;16.20;99.90
20957;DHT22;10637;47.970;7.830;2023-03-30T16:44:32;16.30;99.90
20957;DHT22;10637;47.970;7.830;2023-03-30T16:49:34;16.10;99.90
20957;DHT22;10637;47.970;7.830;2023-03-30T16:54:36;16.20;99.90
20957;DHT22;10637;47.970;7.830;2023-03-30T16:59:37;16.10;99.90
20957;DHT22;10637;47.970;7.830;2023-03-30T17:04:39;16.00;99.90
20957;DHT22;10637;47.970;7.830;2023-03-30T17:09:41;15.70;99.90
20957;DHT22;10637;47.970;7.830;2023-03-30T17:14:43;15.80;99.90
20957;DHT22;10637;47.970;7.830;2023-03-30T17:19:44;16.00;99.90
20957;DHT22;10637;47.970;7.830;2023-03-30T17:24:46;15.90;99.90
20957;DHT22;10637;47.970;7.830;2023-03-30T17:29:48;15.50;99.90
20957;DHT22;10637;47.970;7.830;2023-03-30T17:34:50;15.20;99.90
20957;DHT22;10637;47.970;7.830;2023-03-30T17:39:52;15.00;99.90
20957;DHT22;10637;47.970;7.830;2023-03-30T17:44:53;14.90;99.90
20957;DHT22;10637;47.970;7.830;2023-03-30T17:49:55;14.80;99.90
20957;DHT22;10637;47.970;7.830;2023-03-30T17:54:58;14.70;99.90
20957;DHT22;10637;47.970;7.830;2023-03-30T18:00:01;14.70;99.90
20957;DHT22;10637;47.970;7.830;2023-03-30T18:05:04;14.60;99.90
20957;DHT22;10637;47.970;7.830;2023-03-30T18:15:26;14.40;99.90
20957;DHT22;10637;47.970;7.830;2023-03-30T18:25:35;14.30;99.90
20957;DHT22;10637;47.970;7.830;2023-03-30T18:30:37;14.20;99.90
20957;DHT22;10637;47.970;7.830;2023-03-30T18:35:39;14.20;99.90
20957;DHT22;10637;47.970;7.830;2023-03-30T18:40:43;14.30;99.90
20957;DHT22;10637;47.970;7.830;2023-03-30T18:45:49;14.30;99.90
20957;DHT22;10637;47.970;7.830;2023-03-30T18:50:53;14.50;99.90
20957;DHT22;10637;47.970;7.830;2023-03-30T18:55:57;14.80;99.90
20957;DHT22;10637;47.970;7.830;2023-03-30T19:01:01;14.80;99.90
20957;DHT22;10637;47.970;7.830;2023-03-30T19:06:02;15.00;99.90
20957;DHT22;10637;47.970;7.830;2023-03-30T19:11:05;15.00;99.90
20957;DHT22;10637;47.970;7.830;2023-03-30T19:16:07;15.00;99.90
20957;DHT22;10637;47.970;7.830;2023-03-30T19:21:14;15.10;99.90
20957;DHT22;10637;47.970;7.830;2023-03-30T19:26:16;14.90;99.90
20957;DHT22;10637;47.970;7.830;2023-03-30T19:31:18;14.70;99.90
20957;DHT22;10637;47.970;7.830;2023-03-30T19:36:20;14.60;99.90
20957;DHT22;10637;47.970;7.830;2023-03-30T19:41:25;14.40;99.90
20957;DHT22;10637;47.970;7.830;2023-03-30T19:46:27;14.30;99.90
20957;DHT22;10637;47.970;7.830;2023-03-30T19:51:29;14.10;99.90
20957;DHT22;10637;47.970;7.830;2023-03-30T19:56:31;13.80;99.90
20957;DHT22;10637;47.970;7.830;2023-03-30T20:01:32;13.50;99.90
20957;DHT22;10637;47.970;7.830;2023-03-30T20:06:34;13.30;99.90
20957;DHT22;10637;47.970;7.830;2023-03-30T20:11:36;13.30;99.90
20957;DHT22;10637;47.970;7.830;2023-03-30T20:16:38;13.30;99.90
20957;DHT22;10637;47.970;7.830;2023-03-30T20:21:40;13.30;99.90
20957;DHT22;10637;47.970;7.830;2023-03-30T20:26:42;13.10;99.90
20957;DHT22;10637;47.970;7.830;2023-03-30T20:31:43;13.10;99.90
20957;DHT22;10637;47.970;7.830;2023-03-30T20:36:46;13.00;99.90
20957;DHT22;10637;47.970;7.830;2023-03-30T20:41:50;12.90;99.90
20957;DHT22;10637;47.970;7.830;2023-03-30T20:46:55;12.70;99.90
20957;DHT22;10637;47.970;7.830;2023-03-30T20:52:00;12.60;99.90
20957;DHT22;10637;47.970;7.830;2023-03-30T20:57:03;12.50;99.90
20957;DHT22;10637;47.970;7.830;2023-03-30T21:02:05;12.60;99.90
20957;DHT22;10637;47.970;7.830;2023-03-30T21:07:06;12.40;99.90
20957;DHT22;10637;47.970;7.830;2023-03-30T21:12:10;12.30;99.90
20957;DHT22;10637;47.970;7.830;2023-03-30T21:17:12;12.30;99.90
20957;DHT22;10637;47.970;7.830;2023-03-30T21:22:14;12.60;99.90
20957;DHT22;10637;47.970;7.830;2023-03-30T21:27:18;12.90;99.90
20957;DHT22;10637;47.970;7.830;2023-03-30T21:32:20;12.90;99.90
20957;DHT22;10637;47.970;7.830;2023-03-30T21:37:21;12.90;99.90
20957;DHT22;10637;47.970;7.830;2023-03-30T21:42:23;13.10;99.90
20957;DHT22;10637;47.970;7.830;2023-03-30T21:47:25;13.30;99.90
20957;DHT22;10637;47.970;7.830;2023-03-30T21:52:26;13.50;99.90
20957;DHT22;10637;47.970;7.830;2023-03-30T21:57:29;13.60;99.90
20957;DHT22;10637;47.970;7.830;2023-03-30T22:02:31;13.60;99.90
20957;DHT22;10637;47.970;7.830;2023-03-30T22:07:33;13.80;99.90
20957;DHT22;10637;47.970;7.830;2023-03-30T22:12:35;14.10;99.90
20957;DHT22;10637;47.970;7.830;2023-03-30T22:17:36;14.20;99.90
20957;DHT22;10637;47.970;7.830;2023-03-30T22:22:42;14.30;99.90
20957;DHT22;10637;47.970;7.830;2023-03-30T22:27:44;14.40;99.90
20957;DHT22;10637;47.970;7.830;2023-03-30T22:32:46;14.40;99.90
20957;DHT22;10637;47.970;7.830;2023-03-30T22:37:48;14.60;99.90
20957;DHT22;10637;47.970;7.830;2023-03-30T22:42:50;14.60;99.90
20957;DHT22;10637;47.970;7.830;2023-03-30T22:47:52;14.70;99.90
20957;DHT22;10637;47.970;7.830;2023-03-30T22:52:56;14.70;99.90
20957;DHT22;10637;47.970;7.830;2023-03-30T22:57:58;14.60;99.90
20957;DHT22;10637;47.970;7.830;2023-03-30T23:03:01;14.60;99.90
20957;DHT22;10637;47.970;7.830;2023-03-30T23:08:03;14.60;99.90
20957;DHT22;10637;47.970;7.830;2023-03-30T23:13:05;14.60;99.90
20957;DHT22;10637;47.970;7.830;2023-03-30T23:18:06;14.70;99.90
20957;DHT22;10637;47.970;7.830;2023-03-30T23:23:08;14.80;99.90
20957;DHT22;10637;47.970;7.830;2023-03-30T23:28:11;14.80;99.90
20957;DHT22;10637;47.970;7.830;2023-03-30T23:33:12;14.80;99.90
20957;DHT22;10637;47.970;7.830;2023-03-30T23:38:14;14.80;99.90
20957;DHT22;10637;47.970;7.830;2023-03-30T23:43:16;14.90;99.90
20957;DHT22;10637;47.970;7.830;2023-03-30T23:48:18;14.80;99.90
20957;DHT22;10637;47.970;7.830;2023-03-30T23:53:20;14.80;99.90
20957;DHT22;10637;47.970;7.830;2023-03-30T23:58:21;14.80;99.90
